Time;durP1;ratioP1;P1;durP2;ratioP2;P2;SDS_P1;SDS_P2;PMS_P1;PMS_P2;Temp;Humidity;BMP_temperature;BMP_pressure;BME280_temperature;BME280_humidity;BME280_pressure;Samples;Min_cycle;Max_cycle;Signal;HPM_P1;HPM_P2
2022/04/16 00:01:12;;;;;;;6.57;4.80;;;;;;;9.21;60.51;99964.06;2617581;54;20034;-65
2022/04/16 00:03:42;;;;;;;5.05;4.60;;;;;;;9.13;60.93;99961.38;2617679;54;20026;-65
2022/04/16 00:06:12;;;;;;;5.22;4.78;;;;;;;9.12;61.11;99959.72;2618028;54;20053;-65
2022/04/16 00:08:41;;;;;;;5.53;4.93;;;;;;;9.08;60.97;99956.56;2617768;54;20039;-65
2022/04/16 00:11:11;;;;;;;5.35;4.85;;;;;;;9.10;61.32;99962.53;2618242;54;20026;-65
2022/04/16 00:13:41;;;;;;;5.45;4.90;;;;;;;9.05;61.43;99953.41;2618048;54;20038;-65
2022/04/16 00:16:16;;;;;;;5.57;4.60;;;;;;;9.00;61.14;99953.88;2618011;54;20035;-66
2022/04/16 00:18:46;;;;;;;5.68;5.03;;;;;;;8.93;61.75;99955.44;2618085;54;20551;-65
2022/04/16 00:21:17;;;;;;;5.43;4.93;;;;;;;8.95;61.91;99963.22;2618275;54;20551;-64
2022/04/16 00:23:47;;;;;;;5.50;5.00;;;;;;;8.99;62.02;99956.66;2618257;54;20062;-64
2022/04/16 00:26:17;;;;;;;5.35;4.85;;;;;;;9.00;61.43;99953.88;2617651;48;20031;-64
2022/04/16 00:28:47;;;;;;;5.85;5.35;;;;;;;8.93;61.74;99951.00;2618296;39;20089;-64
2022/04/16 00:31:19;;;;;;;4.85;4.32;;;;;;;8.89;61.68;99957.56;2618864;54;20033;-65
2022/04/16 00:33:49;;;;;;;4.80;4.30;;;;;;;8.94;62.30;99951.84;2619155;54;20082;-65
2022/04/16 00:36:19;;;;;;;4.75;4.35;;;;;;;9.02;61.69;99949.28;2619315;54;20034;-64
2022/04/16 00:38:49;;;;;;;4.72;4.10;;;;;;;9.07;61.65;99949.63;2618896;54;20034;-64
2022/04/16 00:41:19;;;;;;;5.18;4.68;;;;;;;9.10;61.36;99953.75;2619145;54;20027;-63
2022/04/16 00:43:48;;;;;;;4.75;4.20;;;;;;;8.98;61.92;99953.22;2618971;54;20046;-63
2022/04/16 00:46:21;;;;;;;5.30;4.47;;;;;;;9.00;61.89;99956.50;2618857;54;20034;-65
2022/04/16 00:48:50;;;;;;;4.88;4.10;;;;;;;9.03;61.94;99952.75;2618739;54;20061;-64
2022/04/16 00:51:20;;;;;;;5.72;4.55;;;;;;;9.00;61.73;99953.88;2618685;54;20563;-64
2022/04/16 00:53:52;;;;;;;5.07;4.57;;;;;;;8.94;61.90;99951.84;2619030;54;20574;-65
2022/04/16 00:56:22;;;;;;;5.20;4.45;;;;;;;8.95;61.82;99950.88;2619945;54;20030;-65
2022/04/16 00:58:52;;;;;;;5.60;4.00;;;;;;;8.96;61.85;99951.69;2618525;54;20553;-65
2022/04/16 01:01:24;;;;;;;5.35;4.13;;;;;;;9.00;61.80;99953.88;2617939;54;20084;-65
2022/04/16 01:03:54;;;;;;;4.35;3.92;;;;;;;9.06;61.99;99955.03;2618584;54;20167;-66
2022/04/16 01:06:23;;;;;;;4.30;3.90;;;;;;;9.01;61.61;99955.50;2618914;54;20022;-65
2022/04/16 01:08:54;;;;;;;4.97;4.47;;;;;;;8.94;61.54;99951.84;2618376;54;20038;-65
2022/04/16 01:11:23;;;;;;;5.38;4.88;;;;;;;8.84;61.86;99951.09;2618850;54;20034;-65
2022/04/16 01:13:53;;;;;;;5.47;4.85;;;;;;;8.75;62.26;99954.66;2618790;54;20034;-65
2022/04/16 01:16:25;;;;;;;4.00;3.70;;;;;;;8.61;62.59;99953.38;2618676;54;20064;-66
2022/04/16 01:18:55;;;;;;;6.82;4.43;;;;;;;8.58;62.90;99954.53;2618227;54;20050;-65
2022/04/16 01:21:25;;;;;;;5.32;4.82;;;;;;;8.60;62.71;99959.66;2618746;54;20034;-65
2022/04/16 01:23:58;;;;;;;5.78;4.57;;;;;;;8.49;63.03;99957.22;2618328;47;20057;-64
2022/04/16 01:26:29;;;;;;;6.13;3.75;;;;;;;8.47;63.19;99953.94;2618616;54;20038;-66
2022/04/16 01:28:59;;;;;;;5.65;4.15;;;;;;;8.35;63.16;99959.38;2618238;54;20066;-65
2022/04/16 01:31:30;;;;;;;4.60;4.13;;;;;;;8.36;63.62;99968.94;2618827;54;20070;-65
2022/04/16 01:34:00;;;;;;;4.57;4.13;;;;;;;8.38;63.41;99961.75;2618092;52;20111;-66
2022/04/16 01:36:31;;;;;;;4.18;3.78;;;;;;;8.37;63.63;99960.13;2618601;54;20030;-65
2022/04/16 01:39:04;;;;;;;4.63;4.22;;;;;;;8.42;63.37;99957.03;2618353;54;20027;-64
2022/04/16 01:41:35;;;;;;;4.75;4.32;;;;;;;8.34;63.28;99968.28;2620170;54;20061;-66
2022/04/16 01:44:05;;;;;;;5.20;4.70;;;;;;;8.26;63.47;99962.09;2620514;54;20030;-65
2022/04/16 01:46:35;;;;;;;4.82;4.35;;;;;;;8.22;64.11;99953.66;2619477;54;20030;-65
2022/04/16 01:49:05;;;;;;;5.32;4.68;;;;;;;8.26;63.87;99957.66;2618296;54;20073;-65
2022/04/16 01:51:34;;;;;;;5.68;5.07;;;;;;;8.28;64.00;99962.75;2617992;54;20030;-65
2022/04/16 01:54:07;;;;;;;7.60;4.57;;;;;;;8.22;64.23;99966.00;2618637;54;20038;-65
2022/04/16 01:56:36;;;;;;;5.35;4.57;;;;;;;8.26;64.23;99965.56;2618507;54;20034;-65
2022/04/16 01:59:08;;;;;;;5.40;4.32;;;;;;;8.26;64.18;99956.84;2618286;54;20045;-64
2022/04/16 02:01:37;;;;;;;5.15;4.65;;;;;;;8.31;64.25;99963.31;2618702;54;20027;-65
2022/04/16 02:04:07;;;;;;;4.85;4.35;;;;;;;8.36;64.14;99958.41;2618483;54;20030;-65
2022/04/16 02:06:38;;;;;;;7.97;5.00;;;;;;;8.34;63.61;99960.38;2618553;54;20037;-65
2022/04/16 02:09:10;;;;;;;5.72;4.90;;;;;;;8.25;64.13;99960.44;2618089;54;20030;-64
2022/04/16 02:11:40;;;;;;;6.18;4.50;;;;;;;8.18;64.20;99949.66;2618543;54;20027;-65
2022/04/16 02:14:09;;;;;;;7.38;5.10;;;;;;;8.20;64.35;99947.69;2619021;39;20422;-65
2022/04/16 02:16:39;;;;;;;5.13;4.63;;;;;;;8.27;64.52;99956.66;2618500;54;20042;-65
2022/04/16 02:19:09;;;;;;;5.65;5.10;;;;;;;8.21;64.05;99956.47;2617657;47;20038;-65
2022/04/16 02:21:39;;;;;;;5.55;5.05;;;;;;;8.17;64.12;99962.03;2619204;39;20416;-66
2022/04/16 02:24:13;;;;;;;6.93;4.68;;;;;;;8.06;64.29;99964.03;2618522;54;20034;-65
2022/04/16 02:26:43;;;;;;;7.03;5.13;;;;;;;7.99;64.47;99965.59;2618596;54;20031;-65
2022/04/16 02:29:13;;;;;;;8.15;5.50;;;;;;;7.98;64.65;99959.50;2618568;39;20475;-66
2022/04/16 02:31:45;;;;;;;7.13;5.05;;;;;;;7.93;65.11;99961.75;2618720;54;20083;-66
2022/04/16 02:34:16;;;;;;;4.93;4.43;;;;;;;7.80;65.47;99961.28;2618614;54;20034;-65
2022/04/16 02:36:46;;;;;;;6.35;4.90;;;;;;;7.80;65.80;99974.44;2618485;54;20034;-66
2022/04/16 02:39:18;;;;;;;4.72;4.07;;;;;;;7.87;65.35;99970.22;2617676;51;20035;-66
2022/04/16 02:41:49;;;;;;;4.72;4.30;;;;;;;7.93;65.09;99967.00;2618565;54;20034;-66
2022/04/16 02:47:13;;;;;;;5.75;4.53;;;;;;;7.87;65.45;99962.31;2618118;54;20823;-66
2022/04/16 02:49:43;;;;;;;5.65;4.95;;;;;;;7.88;64.82;99951.66;2618342;54;20154;-66
2022/04/16 02:52:13;;;;;;;5.00;4.38;;;;;;;7.81;65.42;99962.94;2618819;39;20400;-65
2022/04/16 02:54:45;;;;;;;6.47;5.35;;;;;;;7.70;65.66;99969.19;2618165;54;20074;-66
2022/04/16 02:57:15;;;;;;;5.50;4.43;;;;;;;7.65;65.78;99963.56;2618433;54;20570;-65
2022/04/16 02:59:46;;;;;;;7.82;4.57;;;;;;;7.81;65.84;99973.47;2618719;54;20045;-65
2022/04/16 03:02:16;;;;;;;5.18;4.53;;;;;;;7.85;65.21;99969.56;2618008;47;20039;-65
2022/04/16 03:04:49;;;;;;;6.10;4.70;;;;;;;7.83;65.19;99967.06;2618598;54;20057;-65
2022/04/16 03:07:19;;;;;;;6.80;4.90;;;;;;;7.75;65.33;99977.47;2617991;54;20539;-65
2022/04/16 03:09:51;;;;;;;6.60;5.63;;;;;;;7.68;65.62;99972.00;2618885;54;20060;-65
2022/04/16 03:12:21;;;;;;;5.90;4.88;;;;;;;7.56;65.62;99974.94;2618815;54;20026;-65
2022/04/16 03:17:42;;;;;;;5.40;4.90;;;;;;;7.45;66.36;99971.50;2617185;54;20034;-66
2022/04/16 03:20:14;;;;;;;6.38;4.95;;;;;;;7.44;66.34;99983.03;2618735;54;20026;-65
2022/04/16 03:22:46;;;;;;;5.50;5.00;;;;;;;7.38;66.39;99993.28;2618451;54;20519;-65
2022/04/16 03:25:18;;;;;;;6.10;4.78;;;;;;;7.54;66.53;99992.66;2618239;54;20034;-66
2022/04/16 03:27:48;;;;;;;6.32;5.28;;;;;;;7.62;66.34;99992.78;2617411;47;20026;-65
2022/04/16 03:30:17;;;;;;;7.65;5.43;;;;;;;7.63;66.17;99994.44;2618268;54;20065;-65
2022/04/16 03:32:50;;;;;;;7.13;6.15;;;;;;;7.57;66.25;99992.38;2618453;54;20608;-65
2022/04/16 03:35:21;;;;;;;7.15;6.10;;;;;;;7.51;66.54;99982.44;2619082;54;20031;-65
2022/04/16 03:37:51;;;;;;;5.70;5.10;;;;;;;7.43;66.88;99986.63;2623044;54;20046;-66
2022/04/16 03:40:26;;;;;;;8.00;6.07;;;;;;;7.58;67.09;99991.41;2621351;39;20408;-66
2022/04/16 03:42:59;;;;;;;5.95;5.18;;;;;;;7.66;66.49;99988.88;2618603;54;20031;-65
2022/04/16 03:45:30;;;;;;;6.70;5.90;;;;;;;7.78;66.48;99989.53;2618703;54;20037;-64
2022/04/16 03:48:01;;;;;;;7.60;5.63;;;;;;;7.84;66.35;99989.78;2619008;39;20447;-65
2022/04/16 03:50:32;;;;;;;6.03;5.43;;;;;;;7.84;65.84;99983.69;2618610;54;20038;-64
2022/04/16 03:53:02;;;;;;;7.68;5.60;;;;;;;7.83;66.55;99980.22;2618600;54;20065;-65
2022/04/16 04:01:02;;;;;;;8.07;6.35;;;;;;;7.98;65.48;99983.19;2622148;54;20551;-66
2022/04/16 04:03:32;;;;;;;6.85;5.45;;;;;;;7.86;65.95;99979.94;2621701;54;20034;-65
2022/04/16 04:06:03;;;;;;;5.75;5.15;;;;;;;7.77;65.85;99983.44;2620838;54;20038;-65
2022/04/16 04:08:33;;;;;;;8.40;5.95;;;;;;;7.78;66.26;99990.34;2618856;39;20452;-65
2022/04/16 04:11:06;;;;;;;9.30;5.78;;;;;;;7.74;66.12;99993.44;2618843;54;20030;-65
2022/04/16 04:13:36;;;;;;;7.22;5.63;;;;;;;7.68;66.50;99992.22;2618888;54;20034;-65
2022/04/16 04:16:06;;;;;;;6.07;4.70;;;;;;;7.64;66.46;99996.94;2618751;54;20121;-64
2022/04/16 04:18:36;;;;;;;14.13;8.35;;;;;;;7.64;66.69;99996.13;2617531;54;20035;-65
2022/04/16 04:21:05;;;;;;;11.02;7.68;;;;;;;7.65;66.70;99997.75;2618789;54;20074;-65
2022/04/16 04:23:35;;;;;;;8.90;5.65;;;;;;;7.67;66.31;99998.44;2618725;54;20026;-65
2022/04/16 04:26:08;;;;;;;7.20;5.07;;;;;;;7.65;66.35;100009.13;2618692;54;20039;-65
2022/04/16 04:28:37;;;;;;;6.45;5.65;;;;;;;7.53;66.55;100012.06;2618533;54;20027;-65
2022/04/16 04:31:10;;;;;;;6.70;5.35;;;;;;;7.57;66.84;100014.28;2618506;54;20038;-65
2022/04/16 04:33:40;;;;;;;7.03;5.45;;;;;;;7.73;67.00;100012.84;2617970;54;20047;-65
2022/04/16 04:36:09;;;;;;;7.53;5.75;;;;;;;7.84;66.83;100008.22;2618668;54;20092;-66
2022/04/16 04:38:39;;;;;;;7.53;6.68;;;;;;;7.86;66.79;100019.41;2617453;47;20034;-65
2022/04/16 04:41:11;;;;;;;6.72;5.97;;;;;;;7.79;66.08;100009.59;2618230;54;20039;-64
2022/04/16 04:43:40;;;;;;;5.88;5.10;;;;;;;7.77;66.27;100017.66;2618052;54;20042;-64
2022/04/16 04:46:10;;;;;;;6.47;5.00;;;;;;;7.86;66.34;100011.53;2618077;54;20027;-65
2022/04/16 04:48:40;;;;;;;5.88;5.15;;;;;;;7.85;66.00;100001.97;2617835;54;20027;-64
2022/04/16 04:51:09;;;;;;;9.05;7.63;;;;;;;7.87;66.30;100010.53;2618014;54;20045;-64
2022/04/16 04:53:39;;;;;;;7.97;6.95;;;;;;;8.00;66.26;100012.00;2618583;39;20439;-65
2022/04/16 04:56:11;;;;;;;6.50;5.15;;;;;;;7.88;65.54;100017.47;2618010;54;20030;-65
2022/04/16 04:58:41;;;;;;;9.18;7.43;;;;;;;7.74;65.86;100015.31;2617157;54;20057;-65
2022/04/16 05:01:10;;;;;;;7.03;6.25;;;;;;;7.78;66.31;100014.06;2617956;54;20031;-65
2022/04/16 05:03:40;;;;;;;10.40;7.65;;;;;;;7.75;67.05;100019.59;2618514;39;20541;-65
2022/04/16 05:06:10;;;;;;;8.50;7.30;;;;;;;7.77;66.62;100020.28;2618326;39;20451;-65
2022/04/16 05:08:39;;;;;;;11.38;7.80;;;;;;;7.78;67.18;100018.50;2617343;54;20038;-64
2022/04/16 05:11:12;;;;;;;9.07;7.35;;;;;;;7.80;67.44;100021.81;2618093;54;20027;-64
2022/04/16 05:13:42;;;;;;;9.25;7.22;;;;;;;7.94;67.47;100023.97;2618568;54;20042;-65
2022/04/16 05:16:12;;;;;;;7.90;7.10;;;;;;;8.04;67.12;100027.41;2617884;54;20037;-65
2022/04/16 05:18:43;;;;;;;8.77;7.88;;;;;;;8.07;66.99;100013.09;2618606;54;20083;-65
2022/04/16 05:21:12;;;;;;;8.98;6.88;;;;;;;8.13;67.18;100013.34;2618546;54;20061;-64
2022/04/16 05:23:42;;;;;;;10.05;8.73;;;;;;;8.28;66.80;100013.66;2618640;54;20034;-65
2022/04/16 05:26:15;;;;;;;12.43;8.85;;;;;;;8.36;66.78;100011.09;2618440;54;20555;-66
2022/04/16 05:28:44;;;;;;;10.93;9.77;;;;;;;8.38;66.58;100018.91;2617448;46;20546;-66
2022/04/16 05:31:14;;;;;;;13.13;10.27;;;;;;;8.35;66.96;100017.34;2618422;54;20050;-64
2022/04/16 05:36:26;;;;;;;11.80;8.60;;;;;;;8.40;67.16;100032.75;2618457;54;20034;-65
2022/04/16 05:38:55;;;;;;;10.65;8.60;;;;;;;8.46;67.09;100036.59;2618264;54;20023;-65
2022/04/16 05:41:27;;;;;;;9.30;8.30;;;;;;;8.46;66.97;100039.25;2618357;54;20587;-66
2022/04/16 05:43:57;;;;;;;9.13;8.10;;;;;;;8.48;67.11;100037.28;2618453;54;20042;-66
2022/04/16 05:46:27;;;;;;;9.52;8.18;;;;;;;8.54;66.74;100048.06;2618479;54;20042;-64
2022/04/16 05:48:56;;;;;;;11.40;8.02;;;;;;;8.53;66.73;100041.13;2618230;54;20071;-65
2022/04/16 05:51:27;;;;;;;10.00;8.30;;;;;;;8.59;67.32;100037.06;2618318;54;20037;-65
2022/04/16 05:53:57;;;;;;;12.23;9.20;;;;;;;8.75;66.73;100041.66;2619809;51;20042;-65
2022/04/16 05:56:30;;;;;;;11.20;9.38;;;;;;;8.89;66.85;100043.75;2620512;54;20033;-66
2022/04/16 05:59:03;;;;;;;11.43;8.97;;;;;;;8.90;66.76;100042.81;2619956;54;20031;-66
2022/04/16 06:01:33;;;;;;;17.17;13.65;;;;;;;8.96;66.54;100050.09;2620903;54;20286;-66
2022/04/16 06:04:02;;;;;;;17.60;13.07;;;;;;;9.04;67.01;100049.34;2620864;54;20033;-66
2022/04/16 06:06:32;;;;;;;11.98;10.32;;;;;;;9.11;66.99;100053.03;2621385;39;20448;-65
2022/04/16 06:09:02;;;;;;;15.50;12.20;;;;;;;9.18;67.11;100052.28;2620563;54;20038;-65
2022/04/16 06:11:34;;;;;;;14.93;11.25;;;;;;;9.36;66.86;100046.97;2620941;47;20035;-66
2022/04/16 06:14:03;;;;;;;11.35;9.38;;;;;;;9.45;66.55;100052.28;2621238;54;20062;-66
2022/04/16 06:16:33;;;;;;;11.43;9.52;;;;;;;9.54;65.88;100054.00;2620526;54;20056;-65
2022/04/16 06:19:03;;;;;;;12.65;9.30;;;;;;;9.62;65.63;100048.75;2620265;54;20086;-66
2022/04/16 06:21:32;;;;;;;12.00;10.10;;;;;;;9.66;65.38;100058.03;2620644;54;20033;-66
2022/04/16 06:24:02;;;;;;;13.23;9.55;;;;;;;9.62;65.15;100064.59;2619341;54;20041;-67
2022/04/16 06:26:35;;;;;;;12.95;9.13;;;;;;;9.55;65.37;100063.56;2621422;39;20447;-66
2022/04/16 06:29:05;;;;;;;11.30;8.63;;;;;;;9.56;65.52;100065.25;2619561;54;20030;-67
2022/04/16 06:31:34;;;;;;;12.40;9.85;;;;;;;9.60;66.04;100070.06;2621015;54;20041;-66
2022/04/16 06:34:04;;;;;;;15.25;11.63;;;;;;;9.73;65.43;100069.63;2621593;54;20034;-66
2022/04/16 06:36:34;;;;;;;13.63;10.35;;;;;;;9.83;65.53;100070.34;2621222;54;20026;-66
2022/04/16 06:39:03;;;;;;;15.35;11.65;;;;;;;9.85;65.35;100073.66;2620856;54;20034;-66
2022/04/16 06:41:37;;;;;;;15.30;10.95;;;;;;;9.89;65.66;100076.81;2621614;54;20042;-66
2022/04/16 06:44:07;;;;;;;14.32;10.57;;;;;;;9.92;65.35;100084.44;2619702;54;20034;-66
2022/04/16 06:46:36;;;;;;;11.38;10.13;;;;;;;9.89;65.42;100080.28;2618697;54;20034;-67
2022/04/16 06:49:06;;;;;;;13.65;10.80;;;;;;;9.92;65.47;100079.16;2618592;51;20022;-65
2022/04/16 06:51:35;;;;;;;14.73;9.93;;;;;;;10.06;65.42;100081.19;2619117;54;20026;-66
2022/04/16 06:54:05;;;;;;;13.20;10.05;;;;;;;10.13;64.94;100079.59;2620728;39;20459;-66
2022/04/16 06:56:37;;;;;;;13.02;10.32;;;;;;;10.16;64.92;100086.34;2621107;54;20035;-66
2022/04/16 06:59:07;;;;;;;13.95;10.45;;;;;;;10.26;65.31;100083.63;2621940;54;20164;-66
2022/04/16 07:01:37;;;;;;;14.55;10.90;;;;;;;10.36;64.67;100082.50;2622363;54;20046;-66
2022/04/16 07:04:07;;;;;;;11.68;10.30;;;;;;;10.45;64.65;100082.53;2621294;47;20038;-66
2022/04/16 07:06:39;;;;;;;13.10;9.80;;;;;;;10.49;64.25;100090.00;2622014;54;20049;-65
2022/04/16 07:09:10;;;;;;;12.70;10.05;;;;;;;10.57;64.78;100087.38;2621630;54;20033;-65
2022/04/16 07:11:42;;;;;;;11.48;10.02;;;;;;;10.66;64.09;100089.03;2621992;54;20038;-66
2022/04/16 07:14:11;;;;;;;13.40;10.05;;;;;;;10.73;63.73;100088.38;2621965;54;20038;-66
2022/04/16 07:16:41;;;;;;;14.98;11.20;;;;;;;10.80;63.36;100082.28;2622142;54;20054;-67
2022/04/16 07:19:11;;;;;;;13.50;10.40;;;;;;;10.87;63.16;100088.59;2621819;54;20030;-67
2022/04/16 07:21:41;;;;;;;12.57;9.13;;;;;;;10.95;63.14;100084.31;2621470;54;20033;-66
2022/04/16 07:24:10;;;;;;;10.25;8.07;;;;;;;10.96;62.91;100088.59;2620755;54;20100;-66
2022/04/16 07:26:42;;;;;;;8.27;7.38;;;;;;;11.02;61.93;100085.28;2618937;54;20053;-67
2022/04/16 07:29:13;;;;;;;12.38;8.15;;;;;;;11.00;61.84;100085.47;2619052;54;20038;-65
2022/04/16 07:31:43;;;;;;;9.20;8.25;;;;;;;10.96;62.09;100097.38;2621216;54;20055;-65
2022/04/16 07:34:13;;;;;;;9.38;7.65;;;;;;;10.96;61.97;100099.19;2620829;54;20559;-67
2022/04/16 07:36:43;;;;;;;10.25;7.78;;;;;;;10.93;62.51;100100.31;2619401;54;20029;-65
2022/04/16 07:39:13;;;;;;;10.18;9.07;;;;;;;10.98;62.44;100102.47;2619524;47;20035;-66
2022/04/16 07:41:45;;;;;;;11.20;8.25;;;;;;;10.97;62.24;100101.66;2620861;54;20038;-65
2022/04/16 07:44:14;;;;;;;11.52;8.25;;;;;;;11.09;62.63;100095.06;2618988;54;20045;-66
2022/04/16 07:46:44;;;;;;;8.65;7.55;;;;;;;11.13;61.49;100092.91;2619166;39;20431;-65
2022/04/16 07:49:14;;;;;;;10.15;8.23;;;;;;;11.18;62.00;100093.25;2617844;54;20042;-65
2022/04/16 07:51:45;;;;;;;9.82;7.38;;;;;;;11.35;61.49;100097.56;2618425;54;20034;-66
2022/04/16 07:54:16;;;;;;;8.07;6.78;;;;;;;11.50;60.10;100096.88;2618788;54;20061;-65
2022/04/16 07:56:48;;;;;;;7.32;6.07;;;;;;;11.58;59.58;100103.00;2618767;54;20117;-64
2022/04/16 07:59:18;;;;;;;5.93;4.57;;;;;;;11.58;58.34;100099.53;2621015;54;20030;-65
2022/04/16 08:01:48;;;;;;;6.40;4.78;;;;;;;11.61;57.45;100101.84;2622458;54;20030;-65
2022/04/16 08:04:17;;;;;;;6.05;4.93;;;;;;;11.62;57.31;100111.44;2622659;54;20038;-64
2022/04/16 08:06:47;;;;;;;5.93;5.03;;;;;;;11.66;57.65;100100.34;2625126;39;20468;-65
2022/04/16 08:09:17;;;;;;;5.88;4.70;;;;;;;11.83;57.20;100106.47;2622009;46;20057;-66
2022/04/16 08:11:49;;;;;;;6.38;5.43;;;;;;;11.94;57.03;100101.81;2621690;54;20038;-67
2022/04/16 08:14:23;;;;;;;6.78;4.93;;;;;;;12.05;56.23;100112.88;2622640;54;20049;-65
2022/04/16 08:16:53;;;;;;;5.03;4.47;;;;;;;12.19;55.11;100106.03;2620954;54;20042;-65
2022/04/16 08:19:23;;;;;;;6.10;4.43;;;;;;;12.28;54.72;100115.59;2620056;54;20026;-67
2022/04/16 08:21:53;;;;;;;5.50;4.82;;;;;;;12.31;54.58;100114.44;2622029;54;20035;-67
2022/04/16 08:24:39;;;;;;;5.50;4.57;;;;;;;12.30;53.62;100116.28;2621783;54;20022;-67
2022/04/16 08:27:11;;;;;;;5.65;4.63;;;;;;;12.38;53.62;100121.53;2621322;54;20062;-66
2022/04/16 08:29:41;;;;;;;6.05;5.32;;;;;;;12.51;53.75;100118.34;2620964;54;20031;-66
2022/04/16 08:32:11;;;;;;;4.97;4.10;;;;;;;12.71;53.35;100123.22;2621332;54;20031;-66
2022/04/16 08:34:57;;;;;;;4.63;3.17;;;;;;;12.68;51.15;100116.44;2621127;54;20042;-67
2022/04/16 08:37:26;;;;;;;5.20;3.53;;;;;;;12.60;51.14;100117.28;2621161;54;20027;-66
2022/04/16 08:39:56;;;;;;;5.22;3.53;;;;;;;12.65;50.43;100124.72;2621465;54;20038;-66
2022/04/16 08:42:28;;;;;;;3.67;3.30;;;;;;;12.67;50.36;100112.13;2621537;54;20082;-66
2022/04/16 08:44:59;;;;;;;3.30;3.00;;;;;;;12.69;50.32;100114.59;2620283;47;20038;-66
2022/04/16 08:47:28;;;;;;;3.50;3.20;;;;;;;12.66;49.63;100123.75;2621587;54;20027;-65
2022/04/16 08:49:59;;;;;;;2.55;2.20;;;;;;;12.61;49.08;100120.75;2621435;54;20038;-65
2022/04/16 08:52:32;;;;;;;2.40;2.05;;;;;;;12.60;47.27;100119.94;2622322;54;20041;-68
2022/04/16 08:55:03;;;;;;;1.47;1.37;;;;;;;12.60;46.38;100122.59;2621461;54;20041;-66
2022/04/16 08:57:35;;;;;;;2.28;1.50;;;;;;;12.55;45.61;100124.13;2621439;54;20042;-65
2022/04/16 09:00:06;;;;;;;1.00;1.00;;;;;;;12.52;45.15;100121.81;2621174;54;20034;-66
2022/04/16 09:02:36;;;;;;;2.08;1.88;;;;;;;12.66;45.83;100122.94;2621250;54;20026;-65
2022/04/16 09:05:08;;;;;;;3.47;3.05;;;;;;;12.79;46.56;100118.69;2621048;54;20022;-65
2022/04/16 09:07:46;;;;;;;4.00;3.05;;;;;;;12.81;46.03;100113.19;2620909;54;20544;-65
2022/04/16 09:10:17;;;;;;;2.60;2.03;;;;;;;12.82;45.85;100113.03;2622007;54;20045;-65
2022/04/16 09:12:52;;;;;;;3.17;2.83;;;;;;;12.77;46.12;100111.91;2620529;54;20045;-67
2022/04/16 09:15:24;;;;;;;1.73;1.63;;;;;;;12.81;45.87;100118.50;2620608;54;20027;-65
2022/04/16 09:18:02;;;;;;;1.95;1.73;;;;;;;12.94;46.61;100129.41;2621591;54;20026;-66
2022/04/16 09:20:33;;;;;;;2.90;2.30;;;;;;;13.01;46.96;100121.53;2621499;47;20054;-65
2022/04/16 09:23:04;;;;;;;2.58;2.20;;;;;;;13.08;46.45;100123.31;2622323;54;20068;-66
2022/04/16 09:25:34;;;;;;;2.72;2.42;;;;;;;13.17;46.39;100118.78;2622462;54;20042;-66
2022/04/16 09:28:10;;;;;;;2.60;2.40;;;;;;;13.34;46.18;100122.97;2621182;54;20038;-66
2022/04/16 09:30:51;;;;;;;2.47;2.22;;;;;;;13.30;45.98;100124.34;2621541;54;20027;-66
2022/04/16 09:33:20;;;;;;;2.42;2.08;;;;;;;13.30;45.73;100134.97;2620059;54;20037;-65
2022/04/16 09:35:54;;;;;;;2.22;1.75;;;;;;;13.19;45.40;100127.41;2619128;54;20030;-65
2022/04/16 09:38:25;;;;;;;;;;;;;;;13.16;45.24;100133.06;2618981;54;20034;-65
2022/04/16 09:40:54;;;;;;;4.38;2.28;;;;;;;13.24;45.65;100134.88;2619050;54;19938;-66
2022/04/16 09:43:36;;;;;;;2.70;2.42;;;;;;;13.33;45.97;100137.25;2619339;39;20408;-66
2022/04/16 09:46:12;;;;;;;1.65;1.55;;;;;;;13.33;44.32;100141.75;2619434;54;20038;-66
2022/04/16 09:48:42;;;;;;;1.73;1.63;;;;;;;13.34;44.64;100135.44;2619047;54;20549;-65
2022/04/16 09:51:12;;;;;;;1.80;1.70;;;;;;;13.56;43.56;100137.25;2619541;54;20038;-67
2022/04/16 09:53:45;;;;;;;1.73;1.63;;;;;;;13.78;43.82;100138.22;2620015;54;20038;-65
2022/04/16 09:56:17;;;;;;;1.63;1.52;;;;;;;14.00;42.15;100125.03;2619809;54;20034;-66
2022/04/16 09:58:54;;;;;;;1.60;1.50;;;;;;;14.17;41.94;100123.03;2620126;54;20034;-65
2022/04/16 10:01:24;;;;;;;2.38;1.85;;;;;;;14.26;42.01;100125.41;2621252;54;20035;-65
2022/04/16 10:03:54;;;;;;;4.35;3.17;;;;;;;14.32;41.89;100115.88;2620172;54;20042;-64
2022/04/16 10:06:24;;;;;;;2.90;2.58;;;;;;;14.34;40.61;100117.34;2618590;47;20150;-66
2022/04/16 10:08:53;;;;;;;2.25;2.05;;;;;;;14.09;41.34;100118.63;2619000;54;20026;-66
2022/04/16 10:11:42;;;;;;;2.60;2.00;;;;;;;13.96;41.79;100113.97;2619990;54;20033;-65
2022/04/16 10:14:24;;;;;;;1.75;1.50;;;;;;;13.66;43.07;100115.75;2620714;54;20037;-66
2022/04/16 10:17:08;;;;;;;3.00;1.85;;;;;;;13.61;43.10;100123.44;2620233;54;20087;-66
2022/04/16 10:19:41;;;;;;;1.85;1.60;;;;;;;13.56;42.91;100118.66;2619842;54;20027;-67
2022/04/16 10:22:11;;;;;;;1.70;1.60;;;;;;;13.46;43.15;100134.00;2619190;46;20035;-65
2022/04/16 10:24:49;;;;;;;9.88;1.98;;;;;;;13.36;43.08;100134.25;2619494;54;20042;-65
2022/04/16 10:27:24;;;;;;;1.70;1.60;;;;;;;13.51;43.10;100125.50;2619640;54;20038;-67
2022/04/16 10:30:01;;;;;;;1.67;1.42;;;;;;;13.61;42.41;100134.88;2620441;47;20027;-67
2022/04/16 10:32:40;;;;;;;2.28;2.03;;;;;;;13.62;42.64;100125.06;2620384;47;20030;-66
2022/04/16 10:35:17;;;;;;;1.98;1.73;;;;;;;13.72;43.08;100123.00;2620290;54;20034;-66
2022/04/16 10:37:54;;;;;;;1.70;1.60;;;;;;;13.81;42.47;100129.88;2618467;47;20037;-67
2022/04/16 10:40:25;;;;;;;1.55;1.45;;;;;;;13.70;42.37;100134.81;2619502;54;20030;-66
2022/04/16 10:43:01;;;;;;;1.70;1.60;;;;;;;13.92;42.49;100141.06;2619307;54;20045;-67
2022/04/16 10:45:37;;;;;;;2.17;2.00;;;;;;;13.94;41.74;100131.09;2618537;54;20022;-66
2022/04/16 10:48:11;;;;;;;2.92;1.80;;;;;;;13.93;42.61;100130.28;2619227;47;20022;-66
2022/04/16 10:50:41;;;;;;;3.50;1.90;;;;;;;14.07;42.43;100129.44;2619876;54;20027;-65
2022/04/16 10:53:11;;;;;;;2.97;2.38;;;;;;;14.06;42.34;100132.28;2619192;54;20552;-65
2022/04/16 10:55:50;;;;;;;2.17;1.90;;;;;;;13.94;43.04;100123.94;2619255;39;20435;-66
2022/04/16 10:58:30;;;;;;;3.03;2.60;;;;;;;13.84;42.66;100132.19;2618823;39;20421;-66
2022/04/16 11:01:12;;;;;;;2.40;2.13;;;;;;;13.83;43.12;100132.34;2618635;54;20038;-67
2022/04/16 11:03:50;;;;;;;4.13;2.80;;;;;;;14.11;43.03;100133.38;2618612;54;20551;-66
2022/04/16 11:06:20;;;;;;;3.45;2.60;;;;;;;14.33;42.56;100133.50;2618800;54;20124;-67
2022/04/16 11:08:50;;;;;;;4.93;2.17;;;;;;;14.46;41.93;100138.16;2619227;54;20038;-66
2022/04/16 11:11:20;;;;;;;2.40;2.20;;;;;;;14.18;42.40;100135.31;2619707;39;20195;-66
2022/04/16 11:13:50;;;;;;;2.28;2.08;;;;;;;14.07;41.79;100140.06;2619034;54;20026;-65
2022/04/16 11:16:25;;;;;;;3.33;2.13;;;;;;;14.00;42.56;100136.50;2619139;54;20820;-66
2022/04/16 11:18:55;;;;;;;2.50;2.30;;;;;;;14.03;42.65;100132.66;2618667;54;20577;-66
2022/04/16 11:21:29;;;;;;;3.15;2.58;;;;;;;14.08;42.76;100143.56;2618562;51;20022;-67
2022/04/16 11:24:07;;;;;;;3.10;2.60;;;;;;;14.08;42.45;100135.56;2618854;54;20035;-65
2022/04/16 11:35:00;;;;;;;3.28;2.97;;;;;;;14.14;42.35;100145.50;2620304;54;20035;-65
2022/04/16 11:37:33;;;;;;;4.60;2.50;;;;;;;14.13;42.38;100139.34;2619181;47;20026;-65
2022/04/16 11:40:05;;;;;;;3.60;2.90;;;;;;;14.06;42.32;100119.00;2618835;54;20058;-67
2022/04/16 11:42:36;;;;;;;2.90;2.50;;;;;;;13.99;42.40;100128.69;2618976;54;20030;-65
2022/04/16 11:45:10;;;;;;;3.35;3.05;;;;;;;13.97;42.13;100136.06;2618987;54;20038;-66
2022/04/16 11:47:42;;;;;;;3.50;3.20;;;;;;;14.08;42.15;100127.59;2618340;54;20034;-65
2022/04/16 11:50:13;;;;;;;4.50;3.90;;;;;;;14.25;41.82;100130.94;2618673;54;20042;-66
2022/04/16 11:52:43;;;;;;;3.95;3.45;;;;;;;14.29;41.27;100132.22;2618774;54;20049;-67
2022/04/16 11:55:19;;;;;;;4.22;3.63;;;;;;;14.27;41.79;100128.91;2618383;39;20463;-65
2022/04/16 11:57:54;;;;;;;4.35;3.70;;;;;;;14.13;41.91;100126.06;2618021;54;20058;-65
2022/04/16 12:00:27;;;;;;;3.88;3.20;;;;;;;14.16;41.55;100130.16;2619350;39;20412;-65
2022/04/16 12:02:59;;;;;;;6.25;2.85;;;;;;;14.00;41.42;100125.03;2617912;47;20023;-65
2022/04/16 12:05:30;;;;;;;2.92;2.72;;;;;;;13.94;40.92;100126.59;2618476;46;20052;-64
2022/04/16 12:08:04;;;;;;;3.42;3.10;;;;;;;13.85;41.29;100127.69;2618298;54;20038;-65
2022/04/16 12:10:34;;;;;;;2.90;2.60;;;;;;;13.99;41.32;100128.69;2618209;54;20057;-65
2022/04/16 12:13:12;;;;;;;2.90;2.40;;;;;;;14.05;40.71;100122.66;2620314;31;20560;-64